Mojito — FAC3438 — position and weather

sailwx.info

Track history (hours):
 
Tides and Currents Weather Stations Pressure Air Temp Water Temp Dewpoint Dewpoint Depression Visibility Wind Speed Wind Dir Waves Ship Positions

Mojito

Last reported at 2017-Aug-29 08:59 UTC. Time now 2017-Dec-17 12:02 UTC.
Position N 46°25' W 001°41'.
Warning: this ship's position is months out of date.

Length 8 m.

Type: Sailing vessel. MMSI: 227275660.

Date/timePositionNaut miles runAvg speedWind from/ knotsBaromVisibWave heightAir tempDewpointWater temp
2017-Aug-29 08:59N 46°25' W 001°41'1 0.1
2017-Aug-28 17:00N 46°26' W 001°41'2 4.8
2017-Aug-28 16:29N 46°26' W 001°45'2 4.6
2017-Aug-28 16:00N 46°27' W 001°48'2 4.6
2017-Aug-28 15:30N 46°29' W 001°51'2 3.9
2017-Aug-28 14:57N 46°30' W 001°53'2 3.4
2017-Aug-28 14:30N 46°32' W 001°54'5 0.1
2017-Aug-26 11:26N 46°34' W 002°00'2 4.4
2017-Aug-26 10:56N 46°32' W 001°58'2 4.5
2017-Aug-26 10:30N 46°31' W 001°55'2 4.6
2017-Aug-26 10:00N 46°30' W 001°53'2 4.8
2017-Aug-26 09:30N 46°28' W 001°50'2 4.6
2017-Aug-26 09:00N 46°27' W 001°47'3 4.7
2017-Aug-26 08:28N 46°25' W 001°44'2 3.3
2017-Aug-26 08:00N 46°25' W 001°42'23 1.0
2017-Aug-25 09:47N 46°11' W 001°16'2 4.7
2017-Aug-25 09:20N 46°09' W 001°15'2 6.1
2017-Aug-25 08:58N 46°08' W 001°12'1 3.0
2017-Aug-25 08:29N 46°09' W 001°10'0 0.3
2017-Aug-25 07:54N 46°09' W 001°10'0 0.0
2017-Aug-24 21:11N 46°09' W 001°10'0 0.0
2017-Aug-24 20:47N 46°09' W 001°10'0 0.0
2017-Aug-24 19:47N 46°09' W 001°10'0 0.0
2017-Aug-24 17:44N 46°09' W 001°10'3 2.7
2017-Aug-24 16:28N 46°09' W 001°15'24 0.8
2017-Aug-23 11:20N 46°23' W 001°44'1 4.2
2017-Aug-23 10:59N 46°25' W 001°45'2 4.2
2017-Aug-23 10:30N 46°26' W 001°46'2 3.8
2017-Aug-23 10:00N 46°28' W 001°46'2 4.2
2017-Aug-23 09:30N 46°30' W 001°48'0 0.0
2017-Aug-22 17:15N 46°30' W 001°48'0 0.0
2017-Aug-22 17:00N 46°30' W 001°48'0 0.8
2017-Aug-22 16:30N 46°30' W 001°48'1 2.4
2017-Aug-22 16:00N 46°28' W 001°48'2 4.3
2017-Aug-22 15:30N 46°29' W 001°51'2 3.3
2017-Aug-22 14:53N 46°30' W 001°54'1 2.5
2017-Aug-22 14:30N 46°30' W 001°55'  
Track history (hours):
 
Tides and Currents Weather Stations Pressure Air Temp Water Temp Dewpoint Dewpoint Depression Visibility Wind Speed Wind Dir Waves Ship Positions

Mojito

Last reported at 2017-Aug-29 08:59 UTC. Time now 2017-Dec-17 12:02 UTC.
Position N 46°25' W 001°41'.
Warning: this ship's position is months out of date.

Length 8 m.

Type: Sailing vessel. MMSI: 227275660.

Date/timePositionNaut miles runAvg speedWind from/ knotsBaromVisibWave heightAir tempDewpointWater temp
2017-Aug-29 08:59N 46°25' W 001°41'1 0.1
2017-Aug-28 17:00N 46°26' W 001°41'2 4.8
2017-Aug-28 16:29N 46°26' W 001°45'2 4.6
2017-Aug-28 16:00N 46°27' W 001°48'2 4.6
2017-Aug-28 15:30N 46°29' W 001°51'2 3.9
2017-Aug-28 14:57N 46°30' W 001°53'2 3.4
2017-Aug-28 14:30N 46°32' W 001°54'5 0.1
2017-Aug-26 11:26N 46°34' W 002°00'2 4.4
2017-Aug-26 10:56N 46°32' W 001°58'2 4.5
2017-Aug-26 10:30N 46°31' W 001°55'2 4.6
2017-Aug-26 10:00N 46°30' W 001°53'2 4.8
2017-Aug-26 09:30N 46°28' W 001°50'2 4.6
2017-Aug-26 09:00N 46°27' W 001°47'3 4.7
2017-Aug-26 08:28N 46°25' W 001°44'2 3.3
2017-Aug-26 08:00N 46°25' W 001°42'23 1.0
2017-Aug-25 09:47N 46°11' W 001°16'2 4.7
2017-Aug-25 09:20N 46°09' W 001°15'2 6.1
2017-Aug-25 08:58N 46°08' W 001°12'1 3.0
2017-Aug-25 08:29N 46°09' W 001°10'0 0.3
2017-Aug-25 07:54N 46°09' W 001°10'0 0.0
2017-Aug-24 21:11N 46°09' W 001°10'0 0.0
2017-Aug-24 20:47N 46°09' W 001°10'0 0.0
2017-Aug-24 19:47N 46°09' W 001°10'0 0.0
2017-Aug-24 17:44N 46°09' W 001°10'3 2.7
2017-Aug-24 16:28N 46°09' W 001°15'24 0.8
2017-Aug-23 11:20N 46°23' W 001°44'1 4.2
2017-Aug-23 10:59N 46°25' W 001°45'2 4.2
2017-Aug-23 10:30N 46°26' W 001°46'2 3.8
2017-Aug-23 10:00N 46°28' W 001°46'2 4.2
2017-Aug-23 09:30N 46°30' W 001°48'0 0.0
2017-Aug-22 17:15N 46°30' W 001°48'0 0.0
2017-Aug-22 17:00N 46°30' W 001°48'0 0.8
2017-Aug-22 16:30N 46°30' W 001°48'1 2.4
2017-Aug-22 16:00N 46°28' W 001°48'2 4.3
2017-Aug-22 15:30N 46°29' W 001°51'2 3.3
2017-Aug-22 14:53N 46°30' W 001°54'1 2.5
2017-Aug-22 14:30N 46°30' W 001°55'  

Dump ship's entire track history